Terminal Aerodrome Forecast
Issued by NWS

Home | Current Version | Previous Version | Text Only | Print | Product List | Glossary On
Versions: 1 2 3 4 5 6 7 8 9 10 11 12 13 14 15 16 17
000
FTUS41 KBOX 031722
TAFFMH
TAF
KFMH 031722Z 0318/0418 05011KT P6SM -SHRA OVC008
     FM032000 04007KT P6SM VCSH OVC008
     FM040000 03005KT 3SM BR OVC008
     FM041200 03007KT P6SM OVC008
     FM041500 04009KT P6SM VCSH OVC008=

USA.gov is the U.S. government's official web portal to all federal, state and local government web resources and services.